Latest Weather Observations for Rockhampton

IDQ60801

Issued at 6:05 pm EST Friday 31 October 2014 (issued every 30 minutes, with the page automatically refreshed every 10 minutes)

About weather observations | Map of weather stations | Latest weather observations for QLD | Other Formats
Station Details ID: 039083 Name: ROCKHAMPTON AERO Lat: -23.38 Lon: 150.48 Height: 10.4 m
Data from the previous 72 hours. | See also: Recent months at Rockhampton
Date/Time
EST
Temp
°C
App
Temp
°C
Dew
Point
Rel
Hum
%
Delta-T
°C
Wind Press
QNH
hPa
Press
MSL
hPa
Rain
since 9 am
mm
Dir
 
Spd
km/h
Gust
km/h
Spd
kts
Gust
kts
31/06:00pm 24.9 23.3 17.5 63 4.6 NNE 22 30 12 16 1013.6 1013.5 0.0
31/05:30pm 26.2 25.4 17.0 57 5.7 N 17 22 9 12 1013.2 - 0.0
31/05:00pm 27.4 25.5 16.6 51 6.7 NNE 22 30 12 16 1012.9 - 0.0
31/04:30pm 28.2 26.4 16.1 47 7.5 NE 20 28 11 15 1012.6 - 0.0
31/04:00pm 28.8 26.8 16.4 47 7.7 NE 22 32 12 17 1012.5 - 0.0
31/03:30pm 29.8 28.2 16.5 44 8.3 NE 20 28 11 15 1012.3 - 0.0
31/03:00pm 30.4 29.2 17.1 44 8.4 NNE 19 28 10 15 1012.4 1012.3 0.0
31/02:30pm 30.2 29.3 15.8 41 8.9 ENE 15 22 8 12 1012.6 - 0.0
31/02:00pm 30.5 29.7 16.2 42 8.9 NE 15 24 8 13 1012.9 - 0.0
31/01:30pm 30.6 28.3 14.7 38 9.7 ENE 20 28 11 15 1013.1 - 0.0
31/01:00pm 31.8 29.2 13.8 33 10.9 NNE 20 32 11 17 1013.7 - 0.0
31/12:30pm 30.8 29.1 14.8 37 9.8 N 17 33 9 18 1014.0 - 0.0
31/12:00pm 30.4 28.5 15.3 40 9.3 NNE 19 30 10 16 1014.6 1014.5 0.0
31/11:30am 30.5 30.0 15.8 41 9.1 NE 13 26 7 14 1015.0 - 0.0
31/11:00am 29.5 28.6 16.9 46 7.9 NNE 17 24 9 13 1015.0 - 0.0
31/10:30am 29.0 30.3 17.6 50 7.2 ESE 7 15 4 8 1015.5 - 0.0
31/10:00am 28.5 28.4 17.0 49 7.2 N 13 19 7 10 1016.0 - 0.0
31/09:30am 27.2 28.1 17.5 55 6.1 ENE 9 17 5 9 1016.2 - 0.0
31/09:00am 27.0 27.2 17.6 56 5.9 NE 13 24 7 13 1016.2 1016.1 0.0
31/08:30am 27.1 27.4 17.9 57 5.8 NE 13 24 7 13 1016.4 - 0.0
31/08:00am 25.3 25.3 19.0 68 4.0 NNE 17 20 9 11 1016.5 - 0.0
31/07:30am 24.1 26.1 19.2 74 3.1 NNE 7 15 4 8 1016.3 - 0.0
31/07:00am 23.5 25.8 19.9 80 2.3 NE 7 9 4 5 1016.0 - 0.0
31/06:30am 22.1 24.6 19.9 87 1.4 ESE 6 7 3 4 1015.7 - 0.0
31/06:00am 21.7 24.6 19.8 89 1.2 SE 4 6 2 3 1015.7 1015.6 0.0
31/05:30am 20.0 22.7 18.7 92 0.8 S 2 6 1 3 1015.5 - 0.0
31/05:00am 19.8 22.5 18.7 93 0.7 S 2 7 1 4 1015.2 - 0.0
31/04:30am 20.0 22.7 18.7 92 0.8 S 2 6 1 3 1014.5 - 0.0
31/04:00am 20.1 22.9 18.8 92 0.8 S 2 11 1 6 1014.4 - 0.0
31/03:30am 20.7 23.0 19.4 92 0.8 SSE 6 9 3 5 1014.5 - 0.0
31/03:00am 20.8 23.5 19.5 92 0.8 S 4 6 2 3 1014.4 1014.3 0.0
31/02:30am 21.0 23.0 19.9 93 0.7 S 9 11 5 6 1014.4 - 0.0
31/02:00am 21.2 24.7 19.5 90 1.1 CALM 0 0 0 0 1014.4 - 0.0
31/01:30am 21.4 24.2 19.7 90 1.1 NNE 4 6 2 3 1014.5 - 0.0
31/01:00am 21.4 25.0 19.7 90 1.1 CALM 0 0 0 0 1014.8 - 0.0
31/12:30am 21.4 23.6 19.7 90 1.1 N 7 9 4 5 1014.6 - 0.0
31/12:00am 22.1 24.5 19.6 86 1.6 N 6 7 3 4 1015.3 1015.2 0.0
 
Date/Time
EST
Temp
°C
App
Temp
°C
Dew
Point
Rel
Hum
%
Delta-T
°C
Wind Press
QNH
hPa
Press
MSL
hPa
Rain
since 9 am
mm
Dir
 
Spd
km/h
Gust
km/h
Spd
kts
Gust
kts
30/11:30pm 22.5 24.9 19.7 84 1.8 N 6 15 3 8 1015.7 - 0.0
30/11:00pm 22.7 23.8 19.7 83 1.9 NNE 13 19 7 10 1015.3 - 0.0
30/10:30pm 22.6 24.1 19.8 84 1.8 NNE 11 20 6 11 1015.0 - 0.0
30/10:00pm 23.2 23.6 19.8 81 2.2 NNE 17 24 9 13 1014.9 - 0.0
30/09:30pm 23.3 23.6 19.7 80 2.3 NNE 17 22 9 12 1014.9 - 0.0
30/09:00pm 23.4 23.9 19.2 77 2.7 NNE 15 20 8 11 1014.9 1014.8 0.0
30/08:30pm 23.6 24.6 19.4 77 2.7 NNE 13 19 7 10 1015.0 - 0.0
30/08:00pm 23.7 24.0 19.5 77 2.7 NNE 17 20 9 11 1014.8 - 0.0
30/07:30pm 24.1 24.2 19.2 74 3.1 NE 17 28 9 15 1014.5 - 0.0
30/07:00pm 24.2 23.3 19.0 72 3.3 NE 22 32 12 17 1013.8 - 0.0
30/06:30pm 24.4 23.4 18.9 71 3.5 NNE 22 32 12 17 1013.4 - 0.0
30/06:00pm 25.2 24.6 18.8 67 4.1 NNE 20 30 11 16 1013.0 1012.9 0.0
30/05:30pm 26.3 25.8 19.0 64 4.7 NNE 20 28 11 15 1012.6 - 0.0
30/05:00pm 27.9 27.4 19.1 58 5.7 NNE 20 28 11 15 1012.3 - 0.0
30/04:30pm 29.1 28.6 18.7 53 6.7 NNE 19 24 10 13 1012.0 - 0.0
30/04:00pm 29.3 28.2 18.6 52 6.9 NNE 22 26 12 14 1011.7 - 0.0
30/03:30pm 30.0 28.3 18.1 49 7.6 NNE 24 32 13 17 1011.5 - 0.0
30/03:00pm 30.6 28.9 18.0 47 8.1 NNE 24 30 13 16 1011.6 1011.5 0.0
30/02:30pm 31.3 30.4 17.7 44 8.7 NE 19 32 10 17 1011.8 - 0.0
30/02:00pm 30.7 30.1 16.7 43 8.8 NE 15 26 8 14 1012.2 - 0.0
30/01:30pm 32.1 30.2 15.7 37 10.2 NNE 20 28 11 15 1012.4 - 0.0
30/01:00pm 31.3 30.7 17.5 43 8.8 NE 17 30 9 16 1012.8 - 0.0
30/12:30pm 32.7 32.4 17.4 40 9.8 NE 15 28 8 15 1013.1 - 0.0
30/12:00pm 31.9 31.0 17.7 42 9.1 SE 19 28 10 15 1013.5 1013.4 0.0
30/11:30am 30.8 30.0 17.0 43 8.7 E 17 28 9 15 1014.1 - 0.0
30/11:00am 30.3 29.8 17.0 44 8.4 E 15 22 8 12 1014.5 - 0.0
30/10:30am 29.5 28.8 15.3 42 8.7 ESE 13 19 7 10 1014.9 - 0.0
30/10:00am 29.5 28.9 14.7 40 9.0 ENE 11 17 6 9 1015.2 - 0.0
30/09:30am 28.2 28.2 16.2 48 7.4 NNE 11 19 6 10 1015.7 - 0.0
30/09:00am 28.0 29.1 17.2 52 6.8 ENE 7 13 4 7 1015.9 1015.8 0.0
30/08:30am 26.5 27.6 17.9 59 5.4 ENE 9 19 5 10 1016.3 - 0.0
30/08:00am 26.0 27.1 18.8 64 4.6 ENE 11 17 6 9 1016.2 - 0.0
30/07:30am 25.1 25.6 19.3 70 3.7 NNE 15 20 8 11 1016.2 - 0.0
30/07:00am 24.2 28.3 20.7 81 2.3 CALM 0 2 0 1 1016.6 - 0.0
30/06:30am 22.7 25.2 20.2 86 1.6 N 7 9 4 5 1016.7 - 0.0
30/06:00am 22.3 25.1 20.4 89 1.2 NNW 6 7 3 4 1016.2 1016.1 0.0
30/05:30am 22.0 24.5 20.3 90 1.1 NW 7 9 4 5 1016.0 - 0.0
30/05:00am 22.2 24.3 20.2 88 1.3 N 9 11 5 6 1015.4 - 0.0
30/04:30am 22.3 24.7 20.1 87 1.4 N 7 9 4 5 1014.8 - 0.0
30/04:00am 22.2 26.1 20.3 89 1.2 CALM 0 0 0 0 1014.4 - 0.0
30/03:30am 21.8 25.6 20.1 90 1.1 CALM 0 0 0 0 1014.1 - 0.0
30/03:00am 21.5 23.8 19.9 91 1.0 ESE 7 9 4 5 1013.8 1013.7 0.0
30/02:50am 21.9 24.5 20.0 89 1.2 ESE 6 9 3 5 1013.8 - 0.0
30/02:40am 22.0 24.5 19.8 87 1.4 NE 6 6 3 3 1013.7 - 0.0
30/02:30am 21.9 24.4 19.9 88 1.3 NNE 6 7 3 4 1013.4 - 0.0
30/02:20am 21.7 24.0 19.8 89 1.2 NNE 7 9 4 5 1013.3 - 0.0
30/02:00am 22.0 24.0 20.0 88 1.3 NNE 9 11 5 6 1013.3 - 0.0
30/01:30am 22.5 24.7 20.5 88 1.3 N 9 11 5 6 1013.4 - 0.0
30/01:00am 22.9 27.0 21.5 92 0.9 N 2 7 1 4 1013.7 - 0.0
30/12:30am 22.9 27.3 21.4 91 1.0 CALM 0 0 0 0 1013.8 - 0.0
30/12:26am 22.8 27.2 21.4 92 0.9 CALM 0 0 0 0 1013.9 - 0.0
30/12:00am 22.8 27.3 21.6 93 0.8 CALM 0 0 0 0 1013.9 1013.8 0.0
 
Date/Time
EST
Temp
°C
App
Temp
°C
Dew
Point
Rel
Hum
%
Delta-T
°C
Wind Press
QNH
hPa
Press
MSL
hPa
Rain
since 9 am
mm
Dir
 
Spd
km/h
Gust
km/h
Spd
kts
Gust
kts
29/11:30pm 23.2 26.5 21.4 90 1.2 SE 6 9 3 5 1014.0 - 0.0
29/11:11pm 23.4 26.5 21.4 88 1.3 SE 7 11 4 6 1014.1 - 0.0
29/11:00pm 23.3 26.9 21.3 88 1.3 ESE 4 7 2 4 1014.1 - 0.0
29/10:52pm 23.4 26.7 21.4 88 1.3 ESE 6 7 3 4 1014.2 - 0.0
29/10:30pm 23.7 27.4 21.4 87 1.5 ESE 4 7 2 4 1014.1 - 0.0
29/10:00pm 23.7 27.7 21.4 87 1.5 ENE 2 6 1 3 1013.9 - 0.0
29/09:30pm 24.2 27.5 21.5 85 1.8 E 6 7 3 4 1013.9 - 0.0
29/09:00pm 24.7 27.8 21.4 82 2.2 E 7 9 4 5 1013.7 1013.6 0.0
29/08:30pm 25.3 28.1 21.5 79 2.5 SSE 9 11 5 6 1013.4 - 0.0
29/08:00pm 26.1 28.9 20.9 73 3.4 ESE 7 11 4 6 1013.0 - 0.0
29/07:30pm 27.0 29.3 20.6 68 4.2 SE 9 11 5 6 1012.6 - 0.0
29/07:00pm 27.8 30.6 20.8 65 4.6 ESE 7 11 4 6 1012.0 - 0.0
29/06:30pm 29.9 31.7 19.5 53 6.8 N 9 13 5 7 1011.7 - 0.0
29/06:00pm 30.6 31.7 18.9 49 7.6 NNE 11 17 6 9 1011.0 1010.9 0.0
29/05:30pm 31.8 30.3 16.8 40 9.5 NNE 20 26 11 14 1010.2 - 0.0
29/05:00pm 32.6 30.4 16.9 39 10.0 N 24 32 13 17 1009.8 - 0.0
29/04:50pm 33.1 31.6 16.7 37 10.4 N 20 24 11 13 1009.8 - 0.0
29/04:30pm 33.9 32.5 15.5 33 11.5 N 17 20 9 11 1009.7 - 0.0
29/04:06pm 34.3 32.5 16.1 33 11.5 NNE 20 28 11 15 1009.2 - 0.0
29/04:00pm 34.5 32.2 16.6 34 11.4 NNE 24 30 13 16 1009.2 - 0.0
29/03:30pm 36.4 34.5 16.6 31 12.7 NNE 22 30 12 16 1009.2 - 0.0
29/03:00pm 36.3 34.7 16.0 30 12.9 N 19 28 10 15 1009.3 1009.2 0.0
29/02:30pm 37.5 34.6 12.9 23 15.0 NNW 20 22 11 12 1009.6 - 0.0
29/02:00pm 36.3 33.5 12.7 24 14.3 N 19 28 10 15 1010.0 - 0.0
29/01:30pm 36.6 36.3 14.4 26 13.8 N 9 13 5 7 1010.4 - 0.0
29/01:00pm 35.8 35.2 13.4 26 13.7 NNW 9 20 5 11 1010.8 - 0.0
29/12:30pm 35.0 34.3 13.3 27 13.2 WNW 9 17 5 9 1011.3 - 0.0
29/12:00pm 34.4 33.8 13.5 28 12.7 N 9 15 5 8 1011.9 1011.8 0.0
29/11:30am 33.8 33.7 14.9 32 11.7 NNW 9 13 5 7 1012.4 - 0.0
29/11:00am 33.5 33.7 15.8 34 11.1 N 9 17 5 9 1012.8 - 0.0
29/10:30am 32.2 32.2 15.2 35 10.5 W 9 15 5 8 1013.1 - 0.0
29/10:00am 30.6 30.4 16.6 43 8.8 NW 13 22 7 12 1013.5 - 0.0
29/09:30am 30.7 31.0 16.9 43 8.7 NNW 11 19 6 10 1013.7 - 0.0
29/09:00am 28.6 27.9 16.4 47 7.6 NNW 15 20 8 11 1013.9 1013.8 0.0
29/08:30am 27.7 27.2 16.8 51 6.8 NNW 15 20 8 11 1014.0 - 0.0
29/08:00am 26.6 26.6 17.1 56 5.9 NW 13 20 7 11 1014.0 - 0.0
29/07:30am 25.1 26.2 17.2 61 4.9 WNW 7 13 4 7 1014.1 - 0.0
29/07:00am 23.8 26.0 17.5 68 3.9 N 2 6 1 3 1014.1 - 0.0
29/06:30am 22.6 24.6 17.8 74 3.0 S 4 7 2 4 1014.0 - 0.0
29/06:00am 21.3 22.6 17.6 79 2.3 SW 7 9 4 5 1013.3 1013.2 0.0
29/05:30am 21.3 23.2 17.7 80 2.2 W 4 9 2 5 1013.0 - 0.0
29/05:00am 21.8 23.6 17.4 76 2.7 E 4 7 2 4 1012.9 - 0.0
29/04:30am 22.0 23.3 17.5 75 2.8 ESE 7 11 4 6 1012.8 - 0.0
29/04:00am 22.4 23.2 17.4 73 3.1 ESE 9 13 5 7 1012.8 - 0.0
29/03:30am 22.8 23.4 17.8 73 3.1 ESE 11 15 6 8 1012.6 - 0.0
29/03:00am 23.2 23.9 17.9 72 3.3 ESE 11 15 6 8 1012.2 1012.1 0.0
29/02:30am 23.4 25.2 18.3 73 3.2 ESE 6 9 3 5 1011.8 - 0.0
29/02:00am 23.3 24.7 18.7 75 2.9 NE 9 13 5 7 1011.7 - 0.0
29/01:30am 23.4 22.8 18.5 74 3.1 N 19 24 10 13 1011.3 - 0.0
29/01:00am 23.5 22.0 17.7 70 3.6 N 22 32 12 17 1011.0 - 0.0
29/12:30am 23.9 23.2 17.3 66 4.1 N 17 19 9 10 1011.9 - 0.0
29/12:00am 24.1 23.0 17.2 65 4.3 N 19 26 10 14 1012.2 1012.1 0.0
 
Date/Time
EST
Temp
°C
App
Temp
°C
Dew
Point
Rel
Hum
%
Delta-T
°C
Wind Press
QNH
hPa
Press
MSL
hPa
Rain
since 9 am
mm
Dir
 
Spd
km/h
Gust
km/h
Spd
kts
Gust
kts
28/11:30pm 24.1 22.4 14.7 55 5.6 NNW 17 24 9 13 1012.3 - 0.0
28/11:00pm 24.8 22.2 13.3 48 6.7 N 19 22 10 12 1012.5 - 0.0
28/10:30pm 25.3 23.0 14.2 50 6.6 N 19 24 10 13 1012.1 - 0.0
28/10:00pm 25.2 24.4 15.1 53 6.1 N 13 15 7 8 1012.7 - 0.0
28/09:30pm 25.9 25.5 16.3 55 5.9 N 13 17 7 9 1013.0 - 0.0
28/09:00pm 26.3 25.7 14.6 48 7.0 N 11 13 6 7 1013.3 1013.2 0.0
28/08:30pm 27.6 26.4 12.9 40 8.6 N 11 17 6 9 1013.6 - 0.0
28/08:00pm 27.9 22.5 10.8 34 9.7 WSW 30 39 16 21 1014.0 - 0.0
28/07:30pm 27.3 25.6 13.6 43 8.1 N 15 19 8 10 1011.1 - 0.0
28/07:00pm 28.6 28.1 15.8 45 7.9 N 13 17 7 9 1010.5 - 0.0
28/06:30pm 30.0 28.8 17.0 45 8.2 N 19 26 10 14 1009.8 - 0.0

Other Formats:

Comma delimited format used in spreadsheet applications
http://www.bom.gov.au/fwo/IDQ60801/IDQ60801.94374.axf

JavaScript Object Notation format (JSON) in row-major order
http://www.bom.gov.au/fwo/IDQ60801/IDQ60801.94374.json